sensor_id;sensor_type;location;lat;lon;timestamp;pressure;altitude;pressure_sealevel;temperature;humidity
51849;BME280;38952;51.090;-1.832;2022-09-09T00:00:27;99096.91;;;14.68;100.00
51849;BME280;38952;51.090;-1.832;2022-09-09T00:03:19;99100.13;;;14.70;100.00
51849;BME280;38952;51.090;-1.832;2022-09-09T00:05:51;99104.03;;;14.69;100.00
51849;BME280;38952;51.090;-1.832;2022-09-09T00:08:21;99102.41;;;14.68;100.00
51849;BME280;38952;51.090;-1.832;2022-09-09T00:10:57;99099.19;;;14.66;100.00
51849;BME280;38952;51.090;-1.832;2022-09-09T00:13:46;99081.69;;;14.62;100.00
51849;BME280;38952;51.090;-1.832;2022-09-09T00:16:19;99088.81;;;14.63;100.00
51849;BME280;38952;51.090;-1.832;2022-09-09T00:19:24;99099.66;;;14.68;100.00
51849;BME280;38952;51.090;-1.832;2022-09-09T00:24:36;99095.94;;;14.64;100.00
51849;BME280;38952;51.090;-1.832;2022-09-09T00:30:20;99099.31;;;14.52;100.00
51849;BME280;38952;51.090;-1.832;2022-09-09T00:33:10;99104.66;;;14.48;100.00
51849;BME280;38952;51.090;-1.832;2022-09-09T00:35:38;99091.38;;;14.42;100.00
51849;BME280;38952;51.090;-1.832;2022-09-09T00:38:12;99087.19;;;14.36;100.00
51849;BME280;38952;51.090;-1.832;2022-09-09T00:40:48;99093.66;;;14.31;100.00
51849;BME280;38952;51.090;-1.832;2022-09-09T00:43:25;99101.41;;;14.29;100.00
51849;BME280;38952;51.090;-1.832;2022-09-09T00:48:22;99097.88;;;14.28;100.00
51849;BME280;38952;51.090;-1.832;2022-09-09T00:50:57;99102.38;;;14.33;100.00
51849;BME280;38952;51.090;-1.832;2022-09-09T00:56:14;99122.44;;;14.42;100.00
51849;BME280;38952;51.090;-1.832;2022-09-09T00:59:00;99117.91;;;14.46;100.00
51849;BME280;38952;51.090;-1.832;2022-09-09T01:01:32;99121.63;;;14.51;100.00
51849;BME280;38952;51.090;-1.832;2022-09-09T01:03:58;99122.94;;;14.53;100.00
51849;BME280;38952;51.090;-1.832;2022-09-09T01:06:31;99118.72;;;14.56;100.00
51849;BME280;38952;51.090;-1.832;2022-09-09T01:09:16;99123.91;;;14.57;100.00
51849;BME280;38952;51.090;-1.832;2022-09-09T01:11:49;99121.63;;;14.59;100.00
51849;BME280;38952;51.090;-1.832;2022-09-09T01:17:08;99123.59;;;14.59;100.00
51849;BME280;38952;51.090;-1.832;2022-09-09T01:22:21;99131.66;;;14.55;100.00
51849;BME280;38952;51.090;-1.832;2022-09-09T01:27:40;99134.09;;;14.57;100.00
51849;BME280;38952;51.090;-1.832;2022-09-09T01:30:11;99138.31;;;14.63;100.00
51849;BME280;38952;51.090;-1.832;2022-09-09T01:32:47;99141.06;;;14.63;100.00
51849;BME280;38952;51.090;-1.832;2022-09-09T01:35:36;99131.69;;;14.64;100.00
51849;BME280;38952;51.090;-1.832;2022-09-09T01:38:04;99146.41;;;14.68;100.00
51849;BME280;38952;51.090;-1.832;2022-09-09T01:40:30;99134.44;;;14.64;100.00
51849;BME280;38952;51.090;-1.832;2022-09-09T01:42:56;99142.88;;;14.68;100.00
51849;BME280;38952;51.090;-1.832;2022-09-09T01:45:22;99147.06;;;14.65;100.00
51849;BME280;38952;51.090;-1.832;2022-09-09T01:47:49;99154.19;;;14.66;100.00
51849;BME280;38952;51.090;-1.832;2022-09-09T01:50:15;99153.38;;;14.65;100.00
51849;BME280;38952;51.090;-1.832;2022-09-09T01:52:43;99158.88;;;14.65;100.00
51849;BME280;38952;51.090;-1.832;2022-09-09T01:55:09;99153.84;;;14.59;100.00
51849;BME280;38952;51.090;-1.832;2022-09-09T01:58:15;99167.44;;;14.55;100.00
51849;BME280;38952;51.090;-1.832;2022-09-09T02:00:49;99161.25;;;14.41;100.00
51849;BME280;38952;51.090;-1.832;2022-09-09T02:03:27;99163.38;;;14.44;100.00
51849;BME280;38952;51.090;-1.832;2022-09-09T02:08:23;99169.06;;;14.47;100.00
51849;BME280;38952;51.090;-1.832;2022-09-09T02:11:10;99175.34;;;14.48;100.00
51849;BME280;38952;51.090;-1.832;2022-09-09T02:13:38;99177.28;;;14.39;100.00
51849;BME280;38952;51.090;-1.832;2022-09-09T02:16:11;99169.16;;;14.25;100.00
51849;BME280;38952;51.090;-1.832;2022-09-09T02:21:27;99176.78;;;14.28;100.00
51849;BME280;38952;51.090;-1.832;2022-09-09T02:23:55;99179.84;;;14.26;100.00
51849;BME280;38952;51.090;-1.832;2022-09-09T02:26:21;99169.00;;;14.12;100.00
51849;BME280;38952;51.090;-1.832;2022-09-09T02:28:50;99172.38;;;14.01;100.00
51849;BME280;38952;51.090;-1.832;2022-09-09T02:31:18;99178.97;;;13.91;100.00
51849;BME280;38952;51.090;-1.832;2022-09-09T02:33:49;99174.88;;;13.79;100.00
51849;BME280;38952;51.090;-1.832;2022-09-09T02:36:16;99189.25;;;13.76;100.00
51849;BME280;38952;51.090;-1.832;2022-09-09T02:38:46;99187.09;;;13.65;100.00
51849;BME280;38952;51.090;-1.832;2022-09-09T02:41:26;99192.88;;;13.54;100.00
51849;BME280;38952;51.090;-1.832;2022-09-09T02:43:54;99195.31;;;13.56;100.00
51849;BME280;38952;51.090;-1.832;2022-09-09T02:51:46;99204.97;;;13.85;100.00
51849;BME280;38952;51.090;-1.832;2022-09-09T02:54:24;99200.78;;;13.87;100.00
51849;BME280;38952;51.090;-1.832;2022-09-09T02:56:53;99205.28;;;13.83;100.00
51849;BME280;38952;51.090;-1.832;2022-09-09T02:59:20;99207.53;;;13.81;100.00
51849;BME280;38952;51.090;-1.832;2022-09-09T03:01:46;99211.91;;;13.82;100.00
51849;BME280;38952;51.090;-1.832;2022-09-09T03:04:12;99204.97;;;13.85;100.00
51849;BME280;38952;51.090;-1.832;2022-09-09T03:06:38;99210.31;;;13.90;100.00
51849;BME280;38952;51.090;-1.832;2022-09-09T03:09:03;99204.81;;;13.90;100.00
51849;BME280;38952;51.090;-1.832;2022-09-09T03:11:29;99213.56;;;13.92;100.00
51849;BME280;38952;51.090;-1.832;2022-09-09T03:13:55;99217.75;;;13.89;100.00
51849;BME280;38952;51.090;-1.832;2022-09-09T03:16:22;99213.69;;;13.87;100.00
51849;BME280;38952;51.090;-1.832;2022-09-09T03:18:47;99214.97;;;13.81;100.00
51849;BME280;38952;51.090;-1.832;2022-09-09T03:21:13;99219.34;;;13.82;100.00
51849;BME280;38952;51.090;-1.832;2022-09-09T03:23:39;99217.56;;;13.77;100.00
51849;BME280;38952;51.090;-1.832;2022-09-09T03:26:05;99216.38;;;13.69;100.00
51849;BME280;38952;51.090;-1.832;2022-09-09T03:28:30;99212.16;;;13.63;100.00
51849;BME280;38952;51.090;-1.832;2022-09-09T03:31:00;99222.16;;;13.59;100.00
51849;BME280;38952;51.090;-1.832;2022-09-09T03:33:26;99214.69;;;13.51;100.00
51849;BME280;38952;51.090;-1.832;2022-09-09T03:35:51;99232.75;;;13.52;100.00
51849;BME280;38952;51.090;-1.832;2022-09-09T03:38:17;99215.94;;;13.44;100.00
51849;BME280;38952;51.090;-1.832;2022-09-09T03:40:52;99240.22;;;13.51;100.00
51849;BME280;38952;51.090;-1.832;2022-09-09T03:43:24;99242.31;;;13.54;100.00
51849;BME280;38952;51.090;-1.832;2022-09-09T03:45:50;99239.25;;;13.56;100.00
51849;BME280;38952;51.090;-1.832;2022-09-09T03:48:17;99242.47;;;13.58;100.00
51849;BME280;38952;51.090;-1.832;2022-09-09T03:50:47;99233.13;;;13.59;100.00
51849;BME280;38952;51.090;-1.832;2022-09-09T03:53:14;99242.69;;;13.61;100.00
51849;BME280;38952;51.090;-1.832;2022-09-09T03:55:47;99245.13;;;13.63;100.00
51849;BME280;38952;51.090;-1.832;2022-09-09T03:58:14;99244.47;;;13.66;100.00
51849;BME280;38952;51.090;-1.832;2022-09-09T04:00:40;99246.09;;;13.67;100.00
51849;BME280;38952;51.090;-1.832;2022-09-09T04:03:10;99250.97;;;13.70;100.00
51849;BME280;38952;51.090;-1.832;2022-09-09T04:05:38;99245.47;;;13.70;100.00
51849;BME280;38952;51.090;-1.832;2022-09-09T04:08:07;99237.22;;;13.70;100.00
51849;BME280;38952;51.090;-1.832;2022-09-09T04:10:34;99247.09;;;13.71;100.00
51849;BME280;38952;51.090;-1.832;2022-09-09T04:13:02;99242.25;;;13.68;100.00
51849;BME280;38952;51.090;-1.832;2022-09-09T04:15:27;99252.59;;;13.71;100.00
51849;BME280;38952;51.090;-1.832;2022-09-09T04:17:53;99264.56;;;13.75;100.00
51849;BME280;38952;51.090;-1.832;2022-09-09T04:20:18;99252.59;;;13.71;100.00
51849;BME280;38952;51.090;-1.832;2022-09-09T04:22:44;99249.22;;;13.74;100.00
51849;BME280;38952;51.090;-1.832;2022-09-09T04:25:10;99246.47;;;13.74;100.00
51849;BME280;38952;51.090;-1.832;2022-09-09T04:27:35;99248.06;;;13.75;100.00
51849;BME280;38952;51.090;-1.832;2022-09-09T04:30:00;99242.41;;;13.72;100.00
51849;BME280;38952;51.090;-1.832;2022-09-09T04:32:26;99257.47;;;13.74;100.00
51849;BME280;38952;51.090;-1.832;2022-09-09T04:34:52;99255.81;;;13.73;100.00
51849;BME280;38952;51.090;-1.832;2022-09-09T04:37:18;99265.38;;;13.76;100.00
51849;BME280;38952;51.090;-1.832;2022-09-09T04:39:43;99263.94;;;13.78;100.00
51849;BME280;38952;51.090;-1.832;2022-09-09T04:42:10;99262.31;;;13.77;100.00
51849;BME280;38952;51.090;-1.832;2022-09-09T04:44:38;99257.81;;;13.82;100.00
51849;BME280;38952;51.090;-1.832;2022-09-09T04:47:03;99266.22;;;13.85;100.00
51849;BME280;38952;51.090;-1.832;2022-09-09T04:49:29;99265.91;;;13.87;100.00
51849;BME280;38952;51.090;-1.832;2022-09-09T04:51:57;99270.44;;;13.91;100.00
51849;BME280;38952;51.090;-1.832;2022-09-09T04:54:22;99264.63;;;13.93;100.00
51849;BME280;38952;51.090;-1.832;2022-09-09T04:56:50;99286.38;;;14.03;100.00
51849;BME280;38952;51.090;-1.832;2022-09-09T04:59:15;99289.44;;;14.10;100.00
51849;BME280;38952;51.090;-1.832;2022-09-09T05:01:41;99288.56;;;14.24;100.00
51849;BME280;38952;51.090;-1.832;2022-09-09T05:04:07;99289.38;;;14.33;100.00
51849;BME280;38952;51.090;-1.832;2022-09-09T05:06:34;99294.88;;;14.33;100.00
51849;BME280;38952;51.090;-1.832;2022-09-09T05:09:01;99284.34;;;14.35;100.00
51849;BME280;38952;51.090;-1.832;2022-09-09T05:11:31;99292.13;;;14.33;100.00
51849;BME280;38952;51.090;-1.832;2022-09-09T05:13:57;99300.53;;;14.37;100.00
51849;BME280;38952;51.090;-1.832;2022-09-09T05:16:23;99305.88;;;14.33;100.00
51849;BME280;38952;51.090;-1.832;2022-09-09T05:18:49;99304.25;;;14.32;100.00
51849;BME280;38952;51.090;-1.832;2022-09-09T05:21:17;99311.50;;;14.28;100.00
51849;BME280;38952;51.090;-1.832;2022-09-09T05:23:44;99309.59;;;14.28;100.00
51849;BME280;38952;51.090;-1.832;2022-09-09T05:26:13;99313.78;;;14.26;100.00
51849;BME280;38952;51.090;-1.832;2022-09-09T05:28:39;99308.72;;;14.19;100.00
51849;BME280;38952;51.090;-1.832;2022-09-09T05:31:10;99321.03;;;14.22;100.00
51849;BME280;38952;51.090;-1.832;2022-09-09T05:33:40;99320.03;;;14.18;100.00
51849;BME280;38952;51.090;-1.832;2022-09-09T05:36:08;99324.56;;;14.13;100.00
51849;BME280;38952;51.090;-1.832;2022-09-09T05:38:34;99327.44;;;14.08;100.00
51849;BME280;38952;51.090;-1.832;2022-09-09T05:41:02;99329.53;;;14.03;100.00
51849;BME280;38952;51.090;-1.832;2022-09-09T05:43:28;99333.38;;;14.02;100.00
51849;BME280;38952;51.090;-1.832;2022-09-09T05:46:04;99332.59;;;14.01;100.00
51849;BME280;38952;51.090;-1.832;2022-09-09T05:48:35;99329.16;;;13.95;100.00
51849;BME280;38952;51.090;-1.832;2022-09-09T05:51:01;99331.22;;;13.90;100.00
51849;BME280;38952;51.090;-1.832;2022-09-09T05:53:28;99340.63;;;13.89;100.00
51849;BME280;38952;51.090;-1.832;2022-09-09T05:56:03;99338.63;;;13.81;100.00
51849;BME280;38952;51.090;-1.832;2022-09-09T05:58:33;99341.00;;;13.73;100.00
51849;BME280;38952;51.090;-1.832;2022-09-09T06:01:03;99342.75;;;13.69;100.00
51849;BME280;38952;51.090;-1.832;2022-09-09T06:03:29;99333.28;;;13.53;100.00
51849;BME280;38952;51.090;-1.832;2022-09-09T06:06:05;99348.00;;;13.57;100.00
51849;BME280;38952;51.090;-1.832;2022-09-09T06:08:32;99346.19;;;13.52;100.00
51849;BME280;38952;51.090;-1.832;2022-09-09T06:11:03;99358.09;;;13.48;100.00
51849;BME280;38952;51.090;-1.832;2022-09-09T06:13:29;99351.63;;;13.43;100.00
51849;BME280;38952;51.090;-1.832;2022-09-09T06:15:55;99355.47;;;13.42;100.00
51849;BME280;38952;51.090;-1.832;2022-09-09T06:18:21;99360.34;;;13.46;100.00
51849;BME280;38952;51.090;-1.832;2022-09-09T06:21:00;99368.28;;;13.47;100.00
51849;BME280;38952;51.090;-1.832;2022-09-09T06:23:26;99367.84;;;13.54;100.00
51849;BME280;38952;51.090;-1.832;2022-09-09T06:26:15;99370.47;;;13.59;100.00
51849;BME280;38952;51.090;-1.832;2022-09-09T06:28:45;99365.59;;;13.56;100.00
51849;BME280;38952;51.090;-1.832;2022-09-09T06:31:11;99374.16;;;13.54;100.00
51849;BME280;38952;51.090;-1.832;2022-09-09T06:33:39;99368.34;;;13.56;100.00
51849;BME280;38952;51.090;-1.832;2022-09-09T06:36:10;99369.34;;;13.60;100.00
51849;BME280;38952;51.090;-1.832;2022-09-09T06:38:36;99383.56;;;13.62;100.00
51849;BME280;38952;51.090;-1.832;2022-09-09T06:41:01;99382.94;;;13.65;100.00
51849;BME280;38952;51.090;-1.832;2022-09-09T06:43:27;99387.16;;;13.63;100.00
51849;BME280;38952;51.090;-1.832;2022-09-09T06:46:02;99386.22;;;13.67;100.00
51849;BME280;38952;51.090;-1.832;2022-09-09T06:48:28;99389.97;;;13.71;100.00
51849;BME280;38952;51.090;-1.832;2022-09-09T06:51:03;99388.50;;;13.74;100.00
51849;BME280;38952;51.090;-1.832;2022-09-09T06:53:29;99391.44;;;13.77;100.00
51849;BME280;38952;51.090;-1.832;2022-09-09T06:55:55;99377.72;;;13.77;100.00
51849;BME280;38952;51.090;-1.832;2022-09-09T06:58:20;99387.44;;;13.84;100.00
51849;BME280;38952;51.090;-1.832;2022-09-09T07:00:49;99398.19;;;13.94;100.00
51849;BME280;38952;51.090;-1.832;2022-09-09T07:03:14;99400.66;;;14.04;100.00
51849;BME280;38952;51.090;-1.832;2022-09-09T07:05:40;99395.06;;;14.09;100.00
51849;BME280;38952;51.090;-1.832;2022-09-09T07:08:05;99399.28;;;14.16;100.00
51849;BME280;38952;51.090;-1.832;2022-09-09T07:10:31;99400.28;;;14.20;100.00
51849;BME280;38952;51.090;-1.832;2022-09-09T07:12:56;99406.78;;;14.24;100.00
51849;BME280;38952;51.090;-1.832;2022-09-09T07:15:22;99401.28;;;14.24;100.00
51849;BME280;38952;51.090;-1.832;2022-09-09T07:17:48;99402.75;;;14.30;100.00
51849;BME280;38952;51.090;-1.832;2022-09-09T07:20:14;99411.53;;;14.41;100.00
51849;BME280;38952;51.090;-1.832;2022-09-09T07:22:40;99419.97;;;14.44;100.00
51849;BME280;38952;51.090;-1.832;2022-09-09T07:25:06;99415.97;;;14.51;99.99
51849;BME280;38952;51.090;-1.832;2022-09-09T07:27:32;99423.44;;;14.59;100.00
51849;BME280;38952;51.090;-1.832;2022-09-09T07:29:57;99413.94;;;14.65;100.00
51849;BME280;38952;51.090;-1.832;2022-09-09T07:32:23;99418.66;;;14.73;100.00
51849;BME280;38952;51.090;-1.832;2022-09-09T07:34:48;99428.13;;;14.90;100.00
51849;BME280;38952;51.090;-1.832;2022-09-09T07:37:15;99426.69;;;15.01;100.00
51849;BME280;38952;51.090;-1.832;2022-09-09T07:39:41;99437.88;;;15.13;100.00
51849;BME280;38952;51.090;-1.832;2022-09-09T07:42:07;99425.13;;;15.35;100.00
51849;BME280;38952;51.090;-1.832;2022-09-09T07:44:34;99432.91;;;15.59;98.79
51849;BME280;38952;51.090;-1.832;2022-09-09T07:47:02;99439.59;;;15.84;97.61
51849;BME280;38952;51.090;-1.832;2022-09-09T07:49:27;99440.38;;;16.11;95.88
51849;BME280;38952;51.090;-1.832;2022-09-09T07:51:53;99447.78;;;16.37;93.06
51849;BME280;38952;51.090;-1.832;2022-09-09T07:54:19;99448.00;;;16.62;91.45
51849;BME280;38952;51.090;-1.832;2022-09-09T07:56:46;99444.97;;;16.54;91.77
51849;BME280;38952;51.090;-1.832;2022-09-09T07:59:12;99452.38;;;16.24;93.00
51849;BME280;38952;51.090;-1.832;2022-09-09T08:01:44;99454.31;;;16.06;95.09
51849;BME280;38952;51.090;-1.832;2022-09-09T08:04:16;99457.41;;;15.96;94.21
51849;BME280;38952;51.090;-1.832;2022-09-09T08:06:44;99463.41;;;16.07;95.96
51849;BME280;38952;51.090;-1.832;2022-09-09T08:09:11;99460.66;;;16.71;94.74
51849;BME280;38952;51.090;-1.832;2022-09-09T08:11:38;99463.88;;;17.84;90.46
51849;BME280;38952;51.090;-1.832;2022-09-09T08:14:05;99466.03;;;18.79;84.18
51849;BME280;38952;51.090;-1.832;2022-09-09T08:16:35;99479.00;;;19.36;81.58
51849;BME280;38952;51.090;-1.832;2022-09-09T08:19:03;99471.06;;;19.88;79.42
51849;BME280;38952;51.090;-1.832;2022-09-09T08:21:30;99459.34;;;20.23;76.21
51849;BME280;38952;51.090;-1.832;2022-09-09T08:23:58;99474.19;;;20.59;74.38
51849;BME280;38952;51.090;-1.832;2022-09-09T08:26:29;99482.22;;;21.08;74.12
51849;BME280;38952;51.090;-1.832;2022-09-09T08:28:57;99483.72;;;21.22;72.14
51849;BME280;38952;51.090;-1.832;2022-09-09T08:31:29;99484.13;;;21.75;71.21
51849;BME280;38952;51.090;-1.832;2022-09-09T08:33:55;99476.38;;;22.04;67.53
51849;BME280;38952;51.090;-1.832;2022-09-09T08:36:23;99484.56;;;21.42;69.72
51849;BME280;38952;51.090;-1.832;2022-09-09T08:38:50;99479.22;;;21.17;70.58
51849;BME280;38952;51.090;-1.832;2022-09-09T08:44:10;99490.56;;;23.84;67.99
51849;BME280;38952;51.090;-1.832;2022-09-09T08:46:56;99488.97;;;24.51;61.81
51849;BME280;38952;51.090;-1.832;2022-09-09T08:51:58;99482.59;;;20.91;68.71
51849;BME280;38952;51.090;-1.832;2022-09-09T08:54:27;99501.66;;;19.92;69.37
51849;BME280;38952;51.090;-1.832;2022-09-09T08:56:58;99506.25;;;18.97;74.19
51849;BME280;38952;51.090;-1.832;2022-09-09T08:59:23;99510.72;;;18.44;76.75
51849;BME280;38952;51.090;-1.832;2022-09-09T09:04:59;99513.88;;;18.21;79.56
51849;BME280;38952;51.090;-1.832;2022-09-09T09:10:48;99521.38;;;18.54;79.76
51849;BME280;38952;51.090;-1.832;2022-09-09T09:13:18;99522.13;;;18.76;80.38
51849;BME280;38952;51.090;-1.832;2022-09-09T09:15:52;99531.78;;;19.03;79.89
51849;BME280;38952;51.090;-1.832;2022-09-09T09:18:19;99530.03;;;19.11;75.85
51849;BME280;38952;51.090;-1.832;2022-09-09T09:21:00;99534.91;;;19.14;75.71
51849;BME280;38952;51.090;-1.832;2022-09-09T09:23:31;99533.38;;;19.29;71.51
51849;BME280;38952;51.090;-1.832;2022-09-09T09:26:00;99544.25;;;19.59;76.24
51849;BME280;38952;51.090;-1.832;2022-09-09T09:28:31;99545.53;;;20.14;75.54
51849;BME280;38952;51.090;-1.832;2022-09-09T09:31:05;99548.38;;;20.30;77.35
51849;BME280;38952;51.090;-1.832;2022-09-09T09:35:59;99551.41;;;19.84;78.56
51849;BME280;38952;51.090;-1.832;2022-09-09T09:38:28;99560.06;;;19.70;76.75
51849;BME280;38952;51.090;-1.832;2022-09-09T09:40:56;99566.78;;;19.57;74.65
51849;BME280;38952;51.090;-1.832;2022-09-09T09:43:35;99562.63;;;19.26;75.78
51849;BME280;38952;51.090;-1.832;2022-09-09T09:46:05;99562.72;;;18.72;77.55
51849;BME280;38952;51.090;-1.832;2022-09-09T09:48:31;99555.84;;;18.44;79.68
51849;BME280;38952;51.090;-1.832;2022-09-09T09:50:58;99568.31;;;18.29;80.26
51849;BME280;38952;51.090;-1.832;2022-09-09T09:53:36;99560.84;;;18.09;81.17
51849;BME280;38952;51.090;-1.832;2022-09-09T09:56:05;99578.00;;;18.23;82.64
51849;BME280;38952;51.090;-1.832;2022-09-09T10:01:30;99588.97;;;18.53;80.08
51849;BME280;38952;51.090;-1.832;2022-09-09T10:04:23;99589.34;;;18.64;80.47
51849;BME280;38952;51.090;-1.832;2022-09-09T10:06:50;99593.72;;;18.86;79.67
51849;BME280;38952;51.090;-1.832;2022-09-09T10:12:14;99595.16;;;19.05;79.90
51849;BME280;38952;51.090;-1.832;2022-09-09T10:34:55;99614.53;;;18.71;81.39
51849;BME280;38952;51.090;-1.832;2022-09-09T10:40:15;99614.84;;;19.36;82.17
51849;BME280;38952;51.090;-1.832;2022-09-09T10:42:45;99622.00;;;20.52;79.09
51849;BME280;38952;51.090;-1.832;2022-09-09T10:45:28;99619.84;;;21.50;75.81
51849;BME280;38952;51.090;-1.832;2022-09-09T10:50:57;99625.63;;;21.57;71.77
51849;BME280;38952;51.090;-1.832;2022-09-09T10:53:35;99629.00;;;21.19;77.17
51849;BME280;38952;51.090;-1.832;2022-09-09T10:56:22;99620.66;;;20.74;74.78
51849;BME280;38952;51.090;-1.832;2022-09-09T10:59:04;99626.25;;;20.21;75.47
51849;BME280;38952;51.090;-1.832;2022-09-09T11:01:37;99615.97;;;20.10;78.28
51849;BME280;38952;51.090;-1.832;2022-09-09T11:04:12;99643.03;;;20.00;75.98
51849;BME280;38952;51.090;-1.832;2022-09-09T11:06:45;99644.88;;;19.47;78.30
51849;BME280;38952;51.090;-1.832;2022-09-09T11:09:17;99640.78;;;19.07;80.65
51849;BME280;38952;51.090;-1.832;2022-09-09T11:11:54;99643.22;;;18.88;82.88
51849;BME280;38952;51.090;-1.832;2022-09-09T11:14:42;99634.00;;;18.62;83.61
51849;BME280;38952;51.090;-1.832;2022-09-09T11:17:13;99635.63;;;18.63;83.51
51849;BME280;38952;51.090;-1.832;2022-09-09T11:19:41;99642.91;;;19.35;85.40
51849;BME280;38952;51.090;-1.832;2022-09-09T11:22:20;99645.25;;;20.48;79.19
51849;BME280;38952;51.090;-1.832;2022-09-09T11:36:46;99657.19;;;27.53;63.05
51849;BME280;38952;51.090;-1.832;2022-09-09T11:44:32;99662.97;;;25.13;64.42
51849;BME280;38952;51.090;-1.832;2022-09-09T11:46:58;99672.94;;;24.76;63.33
51849;BME280;38952;51.090;-1.832;2022-09-09T11:49:29;99656.50;;;24.40;63.81
51849;BME280;38952;51.090;-1.832;2022-09-09T11:52:39;99661.06;;;23.26;67.66
51849;BME280;38952;51.090;-1.832;2022-09-09T11:55:25;99650.25;;;22.42;71.21
51849;BME280;38952;51.090;-1.832;2022-09-09T12:00:48;99666.41;;;21.37;76.52
51849;BME280;38952;51.090;-1.832;2022-09-09T12:06:13;99659.78;;;21.74;82.24
51849;BME280;38952;51.090;-1.832;2022-09-09T12:08:47;99667.16;;;22.18;80.45
51849;BME280;38952;51.090;-1.832;2022-09-09T12:11:29;99671.34;;;22.63;71.09
51849;BME280;38952;51.090;-1.832;2022-09-09T12:13:57;99674.31;;;22.90;68.16
51849;BME280;38952;51.090;-1.832;2022-09-09T12:16:33;99678.41;;;22.76;71.57
51849;BME280;38952;51.090;-1.832;2022-09-09T12:24:14;99674.94;;;23.92;71.53
51849;BME280;38952;51.090;-1.832;2022-09-09T12:27:33;99678.44;;;24.69;68.79
51849;BME280;38952;51.090;-1.832;2022-09-09T12:30:04;99688.63;;;26.04;60.90
51849;BME280;38952;51.090;-1.832;2022-09-09T12:32:33;99687.41;;;26.02;64.59
51849;BME280;38952;51.090;-1.832;2022-09-09T12:35:19;99690.03;;;26.36;62.75
51849;BME280;38952;51.090;-1.832;2022-09-09T12:37:50;99689.50;;;26.86;60.00
51849;BME280;38952;51.090;-1.832;2022-09-09T12:40:23;99691.94;;;29.52;58.86
51849;BME280;38952;51.090;-1.832;2022-09-09T12:42:49;99683.53;;;29.49;54.51
51849;BME280;38952;51.090;-1.832;2022-09-09T12:45:23;99683.91;;;28.77;57.09
51849;BME280;38952;51.090;-1.832;2022-09-09T12:50:25;99680.88;;;27.66;60.10
51849;BME280;38952;51.090;-1.832;2022-09-09T12:52:53;99673.00;;;26.70;59.92
51849;BME280;38952;51.090;-1.832;2022-09-09T12:55:23;99678.72;;;25.69;61.39
51849;BME280;38952;51.090;-1.832;2022-09-09T12:57:50;99672.41;;;27.38;59.70
51849;BME280;38952;51.090;-1.832;2022-09-09T13:00:22;99677.25;;;28.09;49.65
51849;BME280;38952;51.090;-1.832;2022-09-09T13:02:56;99673.63;;;27.58;52.62
51849;BME280;38952;51.090;-1.832;2022-09-09T13:05:25;99679.75;;;25.99;54.63
51849;BME280;38952;51.090;-1.832;2022-09-09T13:07:52;99678.50;;;24.15;59.07
51849;BME280;38952;51.090;-1.832;2022-09-09T13:10:24;99674.88;;;22.99;63.09
51849;BME280;38952;51.090;-1.832;2022-09-09T13:12:52;99680.25;;;22.49;64.85
51849;BME280;38952;51.090;-1.832;2022-09-09T13:15:26;99680.88;;;21.59;66.50
51849;BME280;38952;51.090;-1.832;2022-09-09T13:17:59;99673.69;;;20.57;68.73
51849;BME280;38952;51.090;-1.832;2022-09-09T13:20:26;99680.25;;;22.49;69.13
51849;BME280;38952;51.090;-1.832;2022-09-09T13:22:53;99682.78;;;25.31;57.32
51849;BME280;38952;51.090;-1.832;2022-09-09T13:25:25;99689.22;;;25.79;54.69
51849;BME280;38952;51.090;-1.832;2022-09-09T13:27:57;99686.16;;;25.13;56.62
51849;BME280;38952;51.090;-1.832;2022-09-09T13:30:34;99678.91;;;26.54;55.06
51849;BME280;38952;51.090;-1.832;2022-09-09T13:36:09;99684.19;;;22.87;59.31
51849;BME280;38952;51.090;-1.832;2022-09-09T13:41:19;99690.63;;;20.39;70.32
51849;BME280;38952;51.090;-1.832;2022-09-09T13:43:47;99683.47;;;18.85;76.56
51849;BME280;38952;51.090;-1.832;2022-09-09T13:46:28;99693.97;;;18.07;81.47
51849;BME280;38952;51.090;-1.832;2022-09-09T13:51:42;99690.06;;;18.59;80.21
51849;BME280;38952;51.090;-1.832;2022-09-09T13:54:12;99711.53;;;19.05;78.57
51849;BME280;38952;51.090;-1.832;2022-09-09T13:56:39;99697.31;;;18.85;76.30
51849;BME280;38952;51.090;-1.832;2022-09-09T13:59:08;99697.75;;;18.33;78.45
51849;BME280;38952;51.090;-1.832;2022-09-09T14:01:35;99693.41;;;17.84;82.09
51849;BME280;38952;51.090;-1.832;2022-09-09T14:04:02;99700.56;;;17.47;85.33
51849;BME280;38952;51.090;-1.832;2022-09-09T14:06:29;99707.97;;;17.16;88.11
51849;BME280;38952;51.090;-1.832;2022-09-09T14:08:54;99705.69;;;17.01;89.97
51849;BME280;38952;51.090;-1.832;2022-09-09T14:11:20;99705.66;;;17.18;90.48
51849;BME280;38952;51.090;-1.832;2022-09-09T14:13:47;99702.50;;;17.46;88.54
51849;BME280;38952;51.090;-1.832;2022-09-09T14:16:12;99708.34;;;18.01;87.67
51849;BME280;38952;51.090;-1.832;2022-09-09T14:18:39;99709.97;;;18.53;85.14
51849;BME280;38952;51.090;-1.832;2022-09-09T14:21:04;99707.44;;;19.23;81.19
51849;BME280;38952;51.090;-1.832;2022-09-09T14:23:30;99711.91;;;19.61;78.88
51849;BME280;38952;51.090;-1.832;2022-09-09T14:25:55;99715.28;;;19.67;77.17
51849;BME280;38952;51.090;-1.832;2022-09-09T14:28:21;99704.88;;;19.76;77.16
51849;BME280;38952;51.090;-1.832;2022-09-09T14:30:47;99716.81;;;19.89;76.10
51849;BME280;38952;51.090;-1.832;2022-09-09T14:33:15;99711.59;;;20.25;75.52
51849;BME280;38952;51.090;-1.832;2022-09-09T14:35:41;99718.84;;;20.54;73.40
51849;BME280;38952;51.090;-1.832;2022-09-09T14:38:12;99705.44;;;20.44;73.39
51849;BME280;38952;51.090;-1.832;2022-09-09T14:40:40;99728.31;;;20.53;74.32
51849;BME280;38952;51.090;-1.832;2022-09-09T14:43:05;99714.88;;;20.80;73.36
51849;BME280;38952;51.090;-1.832;2022-09-09T14:45:31;99725.66;;;20.69;73.13
51849;BME280;38952;51.090;-1.832;2022-09-09T14:47:57;99718.22;;;21.74;71.39
51849;BME280;38952;51.090;-1.832;2022-09-09T14:50:23;99722.88;;;23.74;64.60
51849;BME280;38952;51.090;-1.832;2022-09-09T14:52:49;99718.28;;;24.09;63.19
51849;BME280;38952;51.090;-1.832;2022-09-09T14:55:15;99720.63;;;25.24;57.87